createdAt,value
2023-08-15T00:03:24.183Z,20.61
2023-08-15T00:08:31.429Z,20.52
2023-08-15T00:13:38.673Z,20.47
2023-08-15T00:18:46.008Z,20.43
2023-08-15T00:23:53.028Z,20.40
2023-08-15T00:29:00.680Z,20.37
2023-08-15T00:34:08.848Z,20.34
2023-08-15T00:39:16.003Z,20.30
2023-08-15T00:44:23.109Z,20.27
2023-08-15T00:49:30.360Z,20.29
2023-08-15T00:54:38.332Z,20.35
2023-08-15T00:59:46.900Z,20.40
2023-08-15T01:04:54.080Z,20.44
2023-08-15T01:10:01.140Z,20.43
2023-08-15T01:15:08.797Z,20.47
2023-08-15T01:20:20.278Z,20.48
2023-08-15T01:25:29.197Z,20.52
2023-08-15T01:30:36.464Z,20.64
2023-08-15T01:35:57.547Z,20.80
2023-08-15T01:41:07.619Z,20.93
2023-08-15T01:46:15.234Z,20.97
2023-08-15T01:51:22.421Z,21.04
2023-08-15T01:56:33.202Z,21.11
2023-08-15T02:01:40.572Z,21.16
2023-08-15T02:06:48.558Z,21.21
2023-08-15T02:11:55.697Z,21.26
2023-08-15T02:17:02.719Z,21.31
2023-08-15T02:22:12.844Z,21.35
2023-08-15T02:27:20.062Z,21.33
2023-08-15T02:32:29.356Z,21.29
2023-08-15T02:37:36.798Z,21.27
2023-08-15T02:42:42.247Z,21.25
2023-08-15T02:47:49.837Z,21.20
2023-08-15T02:52:57.047Z,21.10
2023-08-15T02:58:04.196Z,20.97
2023-08-15T03:03:11.292Z,20.84
2023-08-15T03:08:18.654Z,20.74
2023-08-15T03:13:25.979Z,20.65
2023-08-15T03:18:31.642Z,20.59
2023-08-15T03:23:39.429Z,20.56
2023-08-15T03:28:48.080Z,20.52
2023-08-15T03:33:56.274Z,20.49
2023-08-15T03:39:04.094Z,20.42
2023-08-15T03:44:11.220Z,20.40
2023-08-15T03:49:19.166Z,20.44
2023-08-15T03:54:26.418Z,20.42
2023-08-15T03:59:34.245Z,20.40
2023-08-15T04:04:41.787Z,20.41
2023-08-15T04:09:48.853Z,20.39
2023-08-15T04:14:56.103Z,20.42
2023-08-15T04:20:05.810Z,20.52
2023-08-15T04:25:14.057Z,20.69
2023-08-15T04:30:22.034Z,20.97
2023-08-15T04:35:27.564Z,21.32
2023-08-15T04:40:39.319Z,21.81
2023-08-15T04:45:46.773Z,22.36
2023-08-15T04:50:54.757Z,22.94
2023-08-15T04:56:02.283Z,23.43
2023-08-15T05:01:10.739Z,23.84
2023-08-15T05:06:17.934Z,24.21
2023-08-15T05:11:25.203Z,24.42
2023-08-15T05:16:32.351Z,24.59
2023-08-15T05:21:39.662Z,24.54
2023-08-15T05:26:46.851Z,24.64
2023-08-15T05:31:54.883Z,24.88
2023-08-15T05:37:02.146Z,25.26
2023-08-15T05:42:09.836Z,25.35
2023-08-15T05:47:17.280Z,25.60
2023-08-15T05:52:24.765Z,25.66
2023-08-15T05:57:31.956Z,25.79
2023-08-15T06:02:41.420Z,26.09
2023-08-15T06:07:48.583Z,26.37
2023-08-15T06:12:55.926Z,26.48
2023-08-15T06:18:13.237Z,26.88
2023-08-15T06:23:20.478Z,27.48
2023-08-15T06:28:27.827Z,27.86
2023-08-15T06:33:34.973Z,28.12
2023-08-15T06:38:42.055Z,28.69
2023-08-15T06:43:49.171Z,29.25
2023-08-15T06:48:56.665Z,29.78
2023-08-15T06:54:08.748Z,30.45
2023-08-15T06:59:16.184Z,30.91
2023-08-15T07:04:23.860Z,31.42
2023-08-15T07:09:31.124Z,31.79
2023-08-15T07:14:38.367Z,32.27
2023-08-15T07:19:45.617Z,32.99
2023-08-15T07:24:55.540Z,33.50
2023-08-15T07:30:02.810Z,33.86
2023-08-15T07:35:11.516Z,34.30
2023-08-15T07:40:24.290Z,34.51
2023-08-15T07:45:32.031Z,34.78
2023-08-15T07:50:39.232Z,34.99
2023-08-15T07:55:46.395Z,35.25
2023-08-15T08:00:53.537Z,35.18
2023-08-15T08:06:03.709Z,35.07
2023-08-15T08:11:11.101Z,35.04
2023-08-15T08:16:18.818Z,35.06
2023-08-15T08:21:26.192Z,35.31
2023-08-15T08:26:33.490Z,35.40
2023-08-15T08:31:42.379Z,35.56
2023-08-15T08:36:49.934Z,34.99
2023-08-15T08:41:57.208Z,35.03
2023-08-15T08:47:05.624Z,34.93
2023-08-15T08:52:13.480Z,34.28
2023-08-15T08:57:22.468Z,33.77
2023-08-15T09:02:43.517Z,33.24
2023-08-15T09:07:52.609Z,33.12
2023-08-15T09:13:05.309Z,33.30
2023-08-15T09:18:35.531Z,32.96
2023-08-15T09:23:50.277Z,32.43
2023-08-15T09:29:07.055Z,31.96
2023-08-15T09:34:15.153Z,31.69
2023-08-15T09:39:23.743Z,31.58
2023-08-15T09:44:37.561Z,31.55
2023-08-15T09:49:45.467Z,31.49
2023-08-15T09:54:52.643Z,31.45
2023-08-15T09:59:59.872Z,31.36
2023-08-15T10:05:09.844Z,31.23
2023-08-15T10:10:19.296Z,31.29
2023-08-15T10:15:28.043Z,31.32
2023-08-15T10:20:40.002Z,31.25
2023-08-15T10:25:51.086Z,31.42
2023-08-15T10:30:59.109Z,31.67
2023-08-15T10:36:12.959Z,31.86
2023-08-15T10:41:22.512Z,31.98
2023-08-15T10:46:31.734Z,31.93
2023-08-15T10:51:40.820Z,31.85
2023-08-15T10:56:48.082Z,31.83
2023-08-15T11:01:57.267Z,31.94
2023-08-15T11:07:04.382Z,32.01
2023-08-15T11:12:15.774Z,32.02
2023-08-15T11:17:23.328Z,32.10
2023-08-15T11:22:30.863Z,32.24
2023-08-15T11:27:42.133Z,32.37
2023-08-15T11:32:51.092Z,32.49
2023-08-15T11:37:58.285Z,32.58
2023-08-15T11:43:06.725Z,32.75
2023-08-15T11:48:16.497Z,32.80
2023-08-15T11:53:25.568Z,32.90
2023-08-15T11:58:34.139Z,33.00
2023-08-15T12:03:41.948Z,33.06
2023-08-15T12:08:49.718Z,33.10
2023-08-15T12:13:56.815Z,33.15
2023-08-15T12:19:04.033Z,33.06
2023-08-15T12:24:11.416Z,33.14
2023-08-15T12:29:18.924Z,33.30
2023-08-15T12:34:26.154Z,33.41
2023-08-15T12:39:33.542Z,33.26
2023-08-15T12:44:41.003Z,33.30
2023-08-15T12:49:48.478Z,33.48
2023-08-15T12:54:55.572Z,33.55
2023-08-15T13:00:03.478Z,33.44
2023-08-15T13:05:11.314Z,33.37
2023-08-15T13:10:18.772Z,33.39
2023-08-15T13:15:25.930Z,33.49
2023-08-15T13:20:33.075Z,33.66
2023-08-15T13:25:40.245Z,33.88
2023-08-15T13:30:48.538Z,34.10
2023-08-15T13:35:55.712Z,34.23
2023-08-15T13:41:02.880Z,34.18
2023-08-15T13:46:12.597Z,34.21
2023-08-15T13:51:21.401Z,34.29
2023-08-15T13:56:29.879Z,34.31
2023-08-15T14:01:37.057Z,34.28
2023-08-15T14:06:44.335Z,34.24
2023-08-15T14:11:51.502Z,34.19
2023-08-15T14:16:58.792Z,34.25
2023-08-15T14:22:06.170Z,34.25
2023-08-15T14:27:13.165Z,34.17
2023-08-15T14:32:20.686Z,34.25
2023-08-15T14:37:29.308Z,34.33
2023-08-15T14:42:38.199Z,34.34
2023-08-15T14:47:45.615Z,34.31
2023-08-15T14:52:52.681Z,34.32
2023-08-15T14:57:59.850Z,34.44
2023-08-15T15:03:07.371Z,34.53
2023-08-15T15:08:14.708Z,34.40
2023-08-15T15:13:21.929Z,34.33
2023-08-15T15:18:29.955Z,34.29
2023-08-15T15:23:37.036Z,34.23
2023-08-15T15:28:44.086Z,34.05
2023-08-15T15:33:51.258Z,33.96
2023-08-15T15:38:58.401Z,34.04
2023-08-15T15:44:06.151Z,34.18
2023-08-15T15:49:13.300Z,34.25
2023-08-15T15:54:20.573Z,34.23
2023-08-15T15:59:27.830Z,34.07
2023-08-15T16:04:34.851Z,33.94
2023-08-15T16:09:42.151Z,33.81
2023-08-15T16:14:49.477Z,33.72
2023-08-15T16:19:56.866Z,33.72
2023-08-15T16:25:04.363Z,33.82
2023-08-15T16:30:18.130Z,33.92
2023-08-15T16:35:25.716Z,33.92
2023-08-15T16:40:32.729Z,33.86
2023-08-15T16:45:40.108Z,33.80
2023-08-15T16:50:47.400Z,33.70
2023-08-15T16:55:54.386Z,33.64
2023-08-15T17:01:01.752Z,33.59
2023-08-15T17:06:09.443Z,33.52
2023-08-15T17:11:16.712Z,33.43
2023-08-15T17:16:24.086Z,33.40
2023-08-15T17:21:31.386Z,33.36
2023-08-15T17:26:39.904Z,33.31
2023-08-15T17:31:51.583Z,33.22
2023-08-15T17:36:58.946Z,33.13
2023-08-15T17:42:06.535Z,33.01
2023-08-15T17:47:13.991Z,32.88
2023-08-15T17:52:22.054Z,32.71
2023-08-15T17:57:29.825Z,32.48
2023-08-15T18:02:37.297Z,32.19
2023-08-15T18:07:44.806Z,31.87
2023-08-15T18:12:51.959Z,31.56
2023-08-15T18:17:59.277Z,31.25
2023-08-15T18:23:06.600Z,30.93
2023-08-15T18:28:13.773Z,30.59
2023-08-15T18:33:21.160Z,30.25
2023-08-15T18:38:31.167Z,29.93
2023-08-15T18:43:38.587Z,29.48
2023-08-15T18:48:47.052Z,28.99
2023-08-15T18:53:55.605Z,28.57
2023-08-15T18:59:03.839Z,28.13
2023-08-15T19:04:11.065Z,27.71
2023-08-15T19:09:18.237Z,27.34
2023-08-15T19:14:25.390Z,27.01
2023-08-15T19:19:32.476Z,26.71
2023-08-15T19:24:39.671Z,26.50
2023-08-15T19:29:46.940Z,26.52
2023-08-15T19:34:54.281Z,26.55
2023-08-15T19:40:01.529Z,26.50
2023-08-15T19:45:14.776Z,26.42
2023-08-15T19:50:21.919Z,26.36
2023-08-15T19:55:31.950Z,26.27
2023-08-15T20:00:40.249Z,26.19
2023-08-15T20:05:47.610Z,26.09
2023-08-15T20:10:56.987Z,25.96
2023-08-15T20:16:04.067Z,25.77
2023-08-15T20:21:10.045Z,25.55
2023-08-15T20:26:17.067Z,25.36
2023-08-15T20:31:22.635Z,25.16
2023-08-15T20:36:29.923Z,24.98
2023-08-15T20:41:35.489Z,24.83
2023-08-15T20:46:42.947Z,24.68
2023-08-15T20:51:50.464Z,24.51
2023-08-15T20:56:57.511Z,24.35
2023-08-15T21:02:04.926Z,24.20
2023-08-15T21:07:13.794Z,24.09
2023-08-15T21:12:21.102Z,23.99
2023-08-15T21:17:28.607Z,23.93
2023-08-15T21:22:35.809Z,23.84
2023-08-15T21:27:43.035Z,23.71
2023-08-15T21:32:48.864Z,23.54
2023-08-15T21:37:56.304Z,23.42
2023-08-15T21:43:06.368Z,23.32
2023-08-15T21:48:13.683Z,23.21
2023-08-15T21:53:20.919Z,23.17
2023-08-15T21:58:26.546Z,23.12
2023-08-15T22:03:33.735Z,23.05
2023-08-15T22:08:42.132Z,22.86
2023-08-15T22:13:49.387Z,22.58
2023-08-15T22:18:56.566Z,22.32
2023-08-15T22:24:04.507Z,22.01
2023-08-15T22:29:11.634Z,21.79
2023-08-15T22:34:18.855Z,21.65
2023-08-15T22:39:24.508Z,21.54
2023-08-15T22:44:31.662Z,21.45
2023-08-15T22:49:39.019Z,21.36
2023-08-15T22:54:44.448Z,21.27
2023-08-15T22:59:51.520Z,21.19
2023-08-15T23:04:58.621Z,21.10
2023-08-15T23:10:06.449Z,21.00
2023-08-15T23:15:14.294Z,20.92
2023-08-15T23:20:21.466Z,20.87
2023-08-15T23:25:28.695Z,20.82
2023-08-15T23:30:36.775Z,20.78
2023-08-15T23:35:43.876Z,20.76
2023-08-15T23:40:50.978Z,20.73
2023-08-15T23:45:58.269Z,20.64
2023-08-15T23:51:05.604Z,20.54
2023-08-15T23:56:13.125Z,20.40
